Time;durP1;ratioP1;P1;durP2;ratioP2;P2;SDS_P1;SDS_P2;PMS_P1;PMS_P2;Temp;Humidity;BMP_temperature;BMP_pressure;BME280_temperature;BME280_humidity;BME280_pressure;Samples;Min_cycle;Max_cycle;Signal;HPM_P1;HPM_P2
2024/04/10 00:02:22;;;;;;;5.72;1.00;;;19.80;75.90;;;;;;5470772;26;19995;-57
2024/04/10 00:04:48;;;;;;;3.42;1.05;;;19.80;75.90;;;;;;5479239;26;19994;-57
2024/04/10 00:07:14;;;;;;;5.47;1.10;;;19.80;75.90;;;;;;5478273;26;19998;-56
2024/04/10 00:09:41;;;;;;;4.22;1.08;;;19.70;75.80;;;;;;5476698;26;20063;-57
2024/04/10 00:12:07;;;;;;;4.32;1.00;;;19.80;75.80;;;;;;5477643;26;20505;-56
2024/04/10 00:14:37;;;;;;;3.10;0.90;;;19.70;75.70;;;;;;5477409;26;20066;-56
2024/04/10 00:17:02;;;;;;;;;;;19.70;75.70;;;;;;5478915;26;19998;-56
2024/04/10 00:19:28;;;;;;;4.20;0.90;;;19.70;75.60;;;;;;5479621;26;19992;-57
2024/04/10 00:21:54;;;;;;;3.92;1.00;;;19.70;75.70;;;;;;5471790;26;20006;-56
2024/04/10 00:24:22;;;;;;;4.00;0.98;;;19.70;75.70;;;;;;5475201;26;19994;-57
2024/04/10 00:26:51;;;;;;;5.90;1.27;;;19.70;75.60;;;;;;5478034;26;20078;-56
2024/04/10 00:29:17;;;;;;;3.63;1.00;;;19.70;75.60;;;;;;5476914;26;20010;-56
2024/04/10 00:31:45;;;;;;;4.78;1.25;;;19.70;75.60;;;;;;5477778;26;20026;-56
2024/04/10 00:34:11;;;;;;;3.20;0.98;;;19.70;75.70;;;;;;5474530;26;20074;-57
2024/04/10 00:36:36;;;;;;;4.50;1.20;;;19.60;75.60;;;;;;5473680;26;20453;-56
2024/04/10 00:39:02;;;;;;;3.50;1.00;;;19.60;75.60;;;;;;5480256;26;20014;-57
2024/04/10 00:41:30;;;;;;;5.70;1.30;;;19.60;75.60;;;;;;5477170;26;20010;-56
2024/04/10 00:43:56;;;;;;;4.95;1.27;;;19.60;75.60;;;;;;5474140;26;20583;-56
2024/04/10 00:46:22;;;;;;;3.25;1.17;;;19.60;75.60;;;;;;5474878;26;19990;-56
2024/04/10 00:48:51;;;;;;;3.75;1.10;;;19.60;75.50;;;;;;5477014;26;20122;-57
2024/04/10 00:51:22;;;;;;;6.85;1.42;;;19.60;75.60;;;;;;5473600;26;19998;-57
2024/04/10 00:53:48;;;;;;;4.50;1.10;;;19.60;75.50;;;;;;5475731;26;20760;-57
2024/04/10 00:56:15;;;;;;;4.65;1.20;;;19.60;75.60;;;;;;5479258;26;20006;-57
2024/04/10 00:58:44;;;;;;;4.78;1.17;;;19.60;75.60;;;;;;5474708;26;19994;-56
2024/04/10 01:01:10;;;;;;;3.97;1.10;;;19.60;75.60;;;;;;5480998;26;20469;-56
2024/04/10 01:03:38;;;;;;;5.53;1.08;;;19.60;75.60;;;;;;5475472;26;20019;-56
2024/04/10 01:06:05;;;;;;;4.78;1.25;;;19.60;75.60;;;;;;5475555;26;20002;-57
2024/04/10 01:08:33;;;;;;;5.57;1.13;;;19.60;75.60;;;;;;5473941;26;20424;-56
2024/04/10 01:11:03;;;;;;;4.75;1.17;;;19.50;75.50;;;;;;5477019;26;20012;-56
2024/04/10 01:13:29;;;;;;;5.57;1.17;;;19.50;75.50;;;;;;5480680;26;20782;-57
2024/04/10 01:15:55;;;;;;;3.85;1.10;;;19.50;75.50;;;;;;5473987;26;20002;-56
2024/04/10 01:18:21;;;;;;;6.35;1.45;;;19.50;75.60;;;;;;5478265;26;20006;-56
2024/04/10 01:20:50;;;;;;;3.97;1.15;;;19.50;75.50;;;;;;5473878;26;20070;-56
2024/04/10 01:23:19;;;;;;;7.10;1.35;;;19.50;75.50;;;;;;5479807;26;20002;-57
2024/04/10 01:25:45;;;;;;;6.07;1.20;;;19.50;75.50;;;;;;5480261;26;20009;-57
2024/04/10 01:28:11;;;;;;;4.88;1.30;;;19.50;75.50;;;;;;5481150;26;20508;-57
2024/04/10 01:30:36;;;;;;;5.43;1.20;;;19.50;75.50;;;;;;5479176;26;19994;-56
2024/04/10 01:33:02;;;;;;;5.90;1.20;;;19.50;75.50;;;;;;5480161;26;20009;-57
2024/04/10 01:35:28;;;;;;;5.95;1.42;;;19.50;75.50;;;;;;5474141;26;20005;-56
2024/04/10 01:37:53;;;;;;;4.78;1.23;;;19.50;75.40;;;;;;5481137;26;19998;-57
2024/04/10 01:40:22;;;;;;;4.85;1.35;;;19.50;75.40;;;;;;5475768;26;20078;-57
2024/04/10 01:42:48;;;;;;;4.65;1.05;;;19.50;75.30;;;;;;5477894;26;20445;-57
2024/04/10 01:45:14;;;;;;;4.55;1.15;;;19.50;75.40;;;;;;5475855;26;20005;-57
2024/04/10 01:47:39;;;;;;;6.25;1.33;;;19.50;75.30;;;;;;5475147;26;20010;-56
2024/04/10 01:50:06;;;;;;;4.65;1.17;;;19.40;75.30;;;;;;5478406;26;20509;-57
2024/04/10 01:52:35;;;;;;;3.65;1.00;;;19.40;75.30;;;;;;5477710;26;20006;-57
2024/04/10 01:55:02;;;;;;;5.40;1.20;;;19.40;75.30;;;;;;5477948;26;19998;-56
2024/04/10 01:57:27;;;;;;;5.72;1.30;;;19.40;75.30;;;;;;5472513;26;20013;-56
2024/04/10 01:59:53;;;;;;;4.93;1.30;;;19.40;75.30;;;;;;5479462;26;19998;-57
2024/04/10 02:02:19;;;;;;;5.63;1.45;;;19.40;75.20;;;;;;5472716;26;20489;-57
2024/04/10 02:04:45;;;;;;;5.13;1.23;;;19.40;75.20;;;;;;5477154;26;20002;-56
2024/04/10 02:07:11;;;;;;;6.40;1.50;;;19.40;75.20;;;;;;5464810;26;20002;-56
2024/04/10 02:09:36;;;;;;;4.72;1.30;;;19.40;75.10;;;;;;5472028;26;20009;-57
2024/04/10 02:12:04;;;;;;;6.03;1.17;;;19.40;75.20;;;;;;5469219;26;20009;-57
2024/04/10 02:14:35;;;;;;;4.65;1.30;;;19.40;75.20;;;;;;5471201;26;20030;-57
2024/04/10 02:17:01;;;;;;;7.75;1.40;;;19.40;75.20;;;;;;5471453;26;20333;-57
2024/04/10 02:19:26;;;;;;;5.20;1.30;;;19.40;75.20;;;;;;5470863;26;19998;-57
2024/04/10 02:21:52;;;;;;;4.63;1.27;;;19.40;75.20;;;;;;5472296;26;20009;-57
2024/04/10 02:24:19;;;;;;;4.97;1.33;;;19.40;75.10;;;;;;5474939;26;19998;-56
2024/04/10 02:26:44;;;;;;;5.70;1.48;;;19.30;75.10;;;;;;5468734;26;20013;-57
2024/04/10 02:29:10;;;;;;;5.93;1.50;;;19.30;75.10;;;;;;5470764;26;19998;-57
2024/04/10 02:31:36;;;;;;;5.85;1.38;;;19.30;75.00;;;;;;5473609;26;20003;-57
2024/04/10 02:34:02;;;;;;;5.22;1.17;;;19.30;75.10;;;;;;5476049;26;20021;-58
2024/04/10 02:36:28;;;;;;;7.20;1.65;;;19.30;75.10;;;;;;5483175;26;19998;-57
2024/04/10 02:38:53;;;;;;;5.47;1.35;;;19.30;75.10;;;;;;5483697;26;19997;-57
2024/04/10 02:41:21;;;;;;;5.30;1.20;;;19.30;75.00;;;;;;5481385;26;20002;-58
2024/04/10 02:43:49;;;;;;;5.47;1.40;;;19.30;75.00;;;;;;5476367;26;20010;-57
2024/04/10 02:46:16;;;;;;;4.85;1.27;;;19.20;75.00;;;;;;5480613;26;20002;-57
2024/04/10 02:48:42;;;;;;;5.00;1.20;;;19.20;74.90;;;;;;5475957;26;20002;-57
2024/04/10 02:51:08;;;;;;;5.15;1.20;;;19.20;75.00;;;;;;5476307;26;20774;-57
2024/04/10 02:53:36;;;;;;;5.47;1.40;;;19.20;75.00;;;;;;5476276;26;20008;-57
2024/04/10 02:56:02;;;;;;;6.88;1.42;;;19.20;75.10;;;;;;5473120;26;20034;-57
2024/04/10 02:58:28;;;;;;;7.43;1.30;;;19.20;75.10;;;;;;5472875;26;20027;-57
2024/04/10 03:00:55;;;;;;;4.22;1.40;;;19.20;75.20;;;;;;5469152;26;19998;-58
2024/04/10 03:03:22;;;;;;;6.55;1.25;;;19.20;75.10;;;;;;5472223;26;20037;-58
2024/04/10 03:06:00;;;;;;;5.63;1.40;;;19.20;75.20;;;;;;5470617;26;20003;-57
2024/04/10 03:08:26;;;;;;;5.95;1.33;;;19.20;75.20;;;;;;5470658;26;20494;-57
2024/04/10 03:10:52;;;;;;;8.32;1.50;;;19.20;75.20;;;;;;5462172;26;20075;-58
2024/04/10 03:13:17;;;;;;;5.55;1.45;;;19.20;75.30;;;;;;5468892;26;19998;-57
2024/04/10 03:15:43;;;;;;;5.40;1.50;;;19.20;75.30;;;;;;5474619;26;20009;-58
2024/04/10 03:18:09;;;;;;;4.10;1.10;;;19.20;75.40;;;;;;5469054;26;20007;-58
2024/04/10 03:20:36;;;;;;;3.58;1.08;;;19.10;75.40;;;;;;5475664;26;20013;-57
2024/04/10 03:23:04;;;;;;;6.32;1.50;;;19.10;75.50;;;;;;5475372;26;19999;-57
2024/04/10 03:25:32;;;;;;;6.25;1.40;;;19.10;75.50;;;;;;5476152;26;20006;-58
2024/04/10 03:27:58;;;;;;;4.28;1.13;;;19.10;75.60;;;;;;5472669;26;20018;-57
2024/04/10 03:30:23;;;;;;;8.65;1.58;;;19.10;75.60;;;;;;5469919;26;19995;-58
2024/04/10 03:32:49;;;;;;;6.45;1.50;;;19.10;75.60;;;;;;5476176;26;20008;-57
2024/04/10 03:35:14;;;;;;;7.50;1.50;;;19.10;75.70;;;;;;5479157;26;20103;-58
2024/04/10 03:37:40;;;;;;;5.70;1.20;;;19.10;75.70;;;;;;5473445;26;19998;-57
2024/04/10 03:40:06;;;;;;;5.93;1.20;;;19.10;75.70;;;;;;5473156;26;20009;-57
2024/04/10 03:42:35;;;;;;;6.25;1.27;;;19.10;75.70;;;;;;5465674;26;20006;-57
2024/04/10 03:45:01;;;;;;;6.25;1.30;;;19.10;75.70;;;;;;5467370;26;20027;-56
2024/04/10 03:47:27;;;;;;;6.45;1.40;;;19.10;75.60;;;;;;5471261;26;19998;-57
2024/04/10 03:49:53;;;;;;;7.97;1.38;;;19.10;75.60;;;;;;5468053;26;20010;-56
2024/04/10 03:52:19;;;;;;;3.80;1.23;;;19.10;75.60;;;;;;5467441;26;20457;-56
2024/04/10 03:54:47;;;;;;;7.75;1.40;;;19.20;75.60;;;;;;5461015;26;20013;-56
2024/04/10 03:57:12;;;;;;;5.97;1.40;;;19.20;75.60;;;;;;5469960;26;19999;-57
2024/04/10 03:59:38;;;;;;;6.90;1.38;;;19.20;75.70;;;;;;5473118;26;19994;-57
2024/04/10 04:02:03;;;;;;;7.13;1.73;;;19.20;75.70;;;;;;5472333;26;20071;-56
2024/04/10 04:04:29;;;;;;;4.88;1.40;;;19.20;75.60;;;;;;5476011;26;20005;-57
2024/04/10 04:06:55;;;;;;;6.88;1.33;;;19.20;75.60;;;;;;5470824;26;20391;-56
2024/04/10 04:09:21;;;;;;;5.85;1.50;;;19.20;75.60;;;;;;5463733;26;19999;-56
2024/04/10 04:11:47;;;;;;;6.53;1.60;;;19.20;75.60;;;;;;5478994;26;20012;-57
2024/04/10 04:14:13;;;;;;;4.82;1.10;;;19.20;75.50;;;;;;5464131;26;20002;-56
2024/04/10 04:16:39;;;;;;;6.15;1.30;;;19.20;75.50;;;;;;5470422;26;19998;-56
2024/04/10 04:19:05;;;;;;;5.93;1.20;;;19.30;75.50;;;;;;5470290;26;20069;-56
2024/04/10 04:21:31;;;;;;;6.40;1.52;;;19.30;75.50;;;;;;5469151;26;20011;-56
2024/04/10 04:23:59;;;;;;;5.38;1.23;;;19.20;75.40;;;;;;5473316;26;19994;-56
2024/04/10 04:26:25;;;;;;;8.07;1.83;;;19.30;75.50;;;;;;5470057;26;20377;-56
2024/04/10 04:28:52;;;;;;;5.90;1.50;;;19.30;75.40;;;;;;5471509;26;20049;-56
2024/04/10 04:31:18;;;;;;;4.95;1.30;;;19.30;75.40;;;;;;5454833;26;20464;-56
2024/04/10 04:33:44;;;;;;;6.35;1.50;;;19.30;75.40;;;;;;5468222;26;19998;-56
2024/04/10 04:36:10;;;;;;;6.50;1.50;;;19.30;75.30;;;;;;5481332;26;19998;-56
2024/04/10 04:38:36;;;;;;;3.72;1.10;;;19.30;75.40;;;;;;5474411;26;20074;-56
2024/04/10 04:41:03;;;;;;;5.47;1.42;;;19.40;75.40;;;;;;5465264;26;19995;-57
2024/04/10 04:43:28;;;;;;;4.85;1.15;;;19.40;75.40;;;;;;5472879;26;20002;-56
2024/04/10 04:45:56;;;;;;;5.68;1.33;;;19.40;75.30;;;;;;5470480;26;20465;-56
2024/04/10 04:48:22;;;;;;;5.32;1.40;;;19.30;75.30;;;;;;5474415;26;20005;-56
2024/04/10 04:50:48;;;;;;;6.75;1.20;;;19.30;75.30;;;;;;5462790;26;19998;-56
2024/04/10 04:53:15;;;;;;;5.00;1.23;;;19.30;76.20;;;;;;5464989;26;20003;-57
2024/04/10 04:55:41;;;;;;;10.10;2.45;;;19.30;76.60;;;;;;5468426;26;20509;-57
2024/04/10 04:58:07;;;;;;;8.13;2.30;;;19.30;77.70;;;;;;5469471;26;20826;-57
2024/04/10 05:00:36;;;;;;;6.97;1.70;;;19.30;79.80;;;;;;5469986;26;19990;-57
2024/04/10 05:03:04;;;;;;;5.90;1.50;;;19.30;80.10;;;;;;5468235;26;20002;-58
2024/04/10 05:05:33;;;;;;;7.60;1.77;;;19.30;79.60;;;;;;5466501;26;19999;-58
2024/04/10 05:07:59;;;;;;;5.82;1.50;;;19.30;79.10;;;;;;5468390;26;20465;-58
2024/04/10 05:10:25;;;;;;;6.43;1.60;;;19.30;78.70;;;;;;5470984;26;20413;-58
2024/04/10 05:12:51;;;;;;;5.25;1.40;;;19.30;79.10;;;;;;5470072;26;19994;-58
2024/04/10 05:15:16;;;;;;;5.50;1.30;;;19.30;78.90;;;;;;5474421;26;20533;-58
2024/04/10 05:17:45;;;;;;;3.88;1.17;;;19.30;78.30;;;;;;5471778;26;20010;-58
2024/04/10 05:20:14;;;;;;;7.10;1.65;;;19.30;78.00;;;;;;5468600;26;20010;-58
2024/04/10 05:22:42;;;;;;;6.83;1.53;;;19.30;77.80;;;;;;5453654;26;19999;-58
2024/04/10 05:25:09;;;;;;;6.25;1.30;;;19.40;77.60;;;;;;5467349;26;19998;-58
2024/04/10 05:27:39;;;;;;;6.70;1.50;;;19.40;77.40;;;;;;5457131;26;20075;-58
2024/04/10 05:30:07;;;;;;;8.73;1.65;;;19.40;77.20;;;;;;5468660;26;20010;-57
2024/04/10 05:32:36;;;;;;;5.72;1.42;;;19.40;77.10;;;;;;5469809;26;20003;-57
2024/04/10 05:35:11;;;;;;;4.72;1.33;;;19.50;77.70;;;;;;5465880;26;20358;-58
2024/04/10 05:37:37;;;;;;;5.63;1.33;;;19.40;77.20;;;;;;5462639;26;19998;-57
2024/04/10 05:40:13;;;;;;;5.32;1.25;;;19.50;77.20;;;;;;5462541;26;20002;-58
2024/04/10 05:42:41;;;;;;;5.13;1.50;;;19.50;77.10;;;;;;5474134;26;20065;-58
2024/04/10 05:45:08;;;;;;;6.70;1.60;;;19.50;77.00;;;;;;5465675;26;20010;-58
2024/04/10 05:47:35;;;;;;;6.82;1.75;;;19.50;76.90;;;;;;5477793;26;19998;-58
2024/04/10 05:50:01;;;;;;;6.53;1.65;;;19.50;76.80;;;;;;5456511;26;20005;-57
2024/04/10 05:52:27;;;;;;;5.25;1.20;;;19.60;76.70;;;;;;5462832;26;19998;-58
2024/04/10 05:54:53;;;;;;;4.50;1.20;;;19.50;76.70;;;;;;5464706;26;20003;-57
2024/04/10 05:57:24;;;;;;;5.53;1.20;;;19.60;77.30;;;;;;5468562;26;20002;-58
2024/04/10 05:59:56;;;;;;;6.13;1.60;;;19.60;77.00;;;;;;5460834;26;20033;-58
2024/04/10 06:02:24;;;;;;;5.68;1.42;;;19.60;76.90;;;;;;5476901;26;20095;-57
2024/04/10 06:04:54;;;;;;;7.20;1.77;;;19.60;76.80;;;;;;5466221;26;20013;-57
2024/04/10 06:07:20;;;;;;;6.25;1.40;;;19.60;76.70;;;;;;5462200;26;19994;-56
2024/04/10 06:09:46;;;;;;;6.38;1.35;;;19.70;76.70;;;;;;5477542;26;20360;-57
2024/04/10 06:12:11;;;;;;;5.47;1.50;;;19.70;76.70;;;;;;5462996;26;20678;-56
2024/04/10 06:14:37;;;;;;;6.63;1.65;;;19.70;76.70;;;;;;5474111;26;20019;-56
2024/04/10 06:17:03;;;;;;;7.80;1.45;;;19.60;76.80;;;;;;5471699;26;19998;-56
2024/04/10 06:19:31;;;;;;;7.57;1.50;;;19.60;77.00;;;;;;5466122;26;20515;-56
2024/04/10 06:21:57;;;;;;;5.85;1.45;;;19.70;78.20;;;;;;5466411;26;19999;-57
2024/04/10 06:24:23;;;;;;;6.43;1.38;;;19.60;77.50;;;;;;5470437;26;20017;-56
2024/04/10 06:26:49;;;;;;;8.02;2.35;;;19.60;77.30;;;;;;5469439;26;20109;-56
2024/04/10 06:29:15;;;;;;;6.35;1.40;;;19.60;77.40;;;;;;5468932;26;20002;-56
2024/04/10 06:31:41;;;;;;;6.50;1.40;;;19.60;77.50;;;;;;5471257;26;20002;-56
2024/04/10 06:34:06;;;;;;;6.50;1.60;;;19.70;77.50;;;;;;5458151;26;20338;-57
2024/04/10 06:36:32;;;;;;;5.32;1.42;;;19.60;77.30;;;;;;5479517;26;20682;-57
2024/04/10 06:38:58;;;;;;;4.70;1.40;;;19.60;77.10;;;;;;5474864;26;20002;-57
2024/04/10 06:41:25;;;;;;;7.10;1.50;;;19.60;77.00;;;;;;5471425;26;20006;-56
2024/04/10 06:43:50;;;;;;;8.77;1.55;;;19.60;76.80;;;;;;5469509;26;20002;-57
2024/04/10 06:46:17;;;;;;;6.82;1.83;;;19.50;76.60;;;;;;5477517;26;19998;-56
2024/04/10 06:48:44;;;;;;;6.38;1.40;;;19.50;76.40;;;;;;5475374;26;20025;-58
2024/04/10 06:51:10;;;;;;;7.05;1.75;;;19.50;76.40;;;;;;5480271;26;20002;-57
2024/04/10 06:53:38;;;;;;;6.82;1.85;;;19.50;75.90;;;;;;5472975;26;20468;-57
2024/04/10 06:56:14;;;;;;;8.02;1.70;;;19.50;75.40;;;;;;5473370;26;20037;-57
2024/04/10 06:58:39;;;;;;;6.80;1.70;;;19.50;75.40;;;;;;5472833;26;20432;-57
2024/04/10 07:01:07;;;;;;;5.05;1.40;;;19.40;75.40;;;;;;5473748;26;20005;-56
2024/04/10 07:03:42;;;;;;;7.15;1.80;;;19.40;75.50;;;;;;5477729;26;20074;-57
2024/04/10 07:06:12;;;;;;;9.18;1.80;;;19.40;75.60;;;;;;5470710;26;20002;-57
2024/04/10 07:08:41;;;;;;;6.63;1.75;;;19.40;75.70;;;;;;5476283;26;20005;-57
2024/04/10 07:11:14;;;;;;;6.55;1.70;;;19.40;75.80;;;;;;5480833;26;19998;-57
2024/04/10 07:13:50;;;;;;;5.55;1.50;;;19.40;75.90;;;;;;5481510;26;20016;-58
2024/04/10 07:16:16;;;;;;;5.90;1.60;;;19.30;75.90;;;;;;5473778;26;19999;-58
2024/04/10 07:18:43;;;;;;;5.55;1.70;;;19.30;75.90;;;;;;5477407;26;20009;-58
2024/04/10 07:21:12;;;;;;;7.15;1.65;;;19.30;76.00;;;;;;5473823;26;20009;-58
2024/04/10 07:23:42;;;;;;;6.10;1.95;;;19.30;76.00;;;;;;5482825;26;20018;-58
2024/04/10 07:26:09;;;;;;;6.57;1.65;;;19.30;76.20;;;;;;5468599;26;19998;-58
2024/04/10 07:28:35;;;;;;;6.75;1.73;;;19.30;76.20;;;;;;5476677;26;20022;-58
2024/04/10 07:31:01;;;;;;;7.25;2.05;;;19.30;76.20;;;;;;5475612;26;20018;-58
2024/04/10 07:33:26;;;;;;;9.10;1.70;;;19.30;76.30;;;;;;5478988;26;20531;-58
2024/04/10 07:35:52;;;;;;;6.18;1.70;;;19.30;76.30;;;;;;5476942;26;19994;-58
2024/04/10 07:38:18;;;;;;;7.10;1.90;;;19.30;76.90;;;;;;5467604;26;19998;-58
2024/04/10 07:40:56;;;;;;;5.93;1.45;;;19.30;76.40;;;;;;5478954;26;20013;-58
2024/04/10 07:43:22;;;;;;;6.40;1.70;;;19.30;76.50;;;;;;5478177;26;20038;-58
2024/04/10 07:45:48;;;;;;;7.25;1.85;;;19.30;76.50;;;;;;5471610;26;19998;-58
2024/04/10 07:48:13;;;;;;;6.78;1.40;;;19.30;76.50;;;;;;5478659;26;20009;-58
2024/04/10 07:50:39;;;;;;;6.70;1.55;;;19.30;76.60;;;;;;5473089;26;20006;-58
2024/04/10 07:53:09;;;;;;;6.65;1.70;;;19.30;76.70;;;;;;5480563;26;19998;-58
2024/04/10 07:55:35;;;;;;;5.82;1.45;;;19.30;76.70;;;;;;5473926;26;19998;-57
2024/04/10 07:58:00;;;;;;;9.38;2.97;;;19.30;76.70;;;;;;5467102;26;19994;-58
2024/04/10 08:00:27;;;;;;;11.38;1.90;;;19.20;77.80;;;;;;5471150;26;20006;-58
2024/04/10 08:02:53;;;;;;;7.22;1.75;;;19.20;78.30;;;;;;5467163;26;20494;-58
2024/04/10 08:05:18;;;;;;;9.48;2.28;;;19.20;79.30;;;;;;5472866;26;19999;-58
2024/04/10 08:07:44;;;;;;;10.15;2.35;;;19.20;79.40;;;;;;5473828;26;20010;-58
2024/04/10 08:10:10;;;;;;;9.23;1.95;;;19.20;79.60;;;;;;5475533;26;20456;-58
2024/04/10 08:12:35;;;;;;;6.57;1.85;;;19.20;79.30;;;;;;5478893;26;20006;-58
2024/04/10 08:15:01;;;;;;;8.95;2.00;;;19.30;79.30;;;;;;5469201;26;20683;-58
2024/04/10 08:17:27;;;;;;;10.30;1.98;;;19.20;79.10;;;;;;5476595;26;20002;-58
2024/04/10 08:19:55;;;;;;;7.47;1.90;;;19.20;78.90;;;;;;5473155;26;20009;-58
2024/04/10 08:22:21;;;;;;;8.40;2.00;;;19.20;78.90;;;;;;5469970;26;20002;-58
2024/04/10 08:24:46;;;;;;;9.73;1.95;;;19.20;78.80;;;;;;5463427;26;20066;-57
2024/04/10 08:27:12;;;;;;;5.75;1.75;;;19.20;78.70;;;;;;5464266;26;20005;-57
2024/04/10 08:29:38;;;;;;;10.18;2.10;;;19.20;78.70;;;;;;5469575;26;20011;-57
2024/04/10 08:32:04;;;;;;;8.07;2.00;;;19.20;78.60;;;;;;5477642;26;20472;-57
2024/04/10 08:34:30;;;;;;;7.35;1.98;;;19.20;78.60;;;;;;5470399;26;20006;-57
2024/04/10 08:36:58;;;;;;;6.45;2.10;;;19.20;78.60;;;;;;5472113;26;20049;-57
2024/04/10 08:39:27;;;;;;;11.98;2.25;;;19.20;78.60;;;;;;5472769;26;20726;-57
2024/04/10 08:41:52;;;;;;;7.20;1.77;;;19.20;78.50;;;;;;5468327;26;20013;-57
2024/04/10 08:44:22;;;;;;;8.48;2.05;;;19.20;78.50;;;;;;5469248;26;20647;-57
2024/04/10 08:46:49;;;;;;;8.13;2.25;;;19.20;78.50;;;;;;5471966;26;20009;-57
2024/04/10 08:49:15;;;;;;;7.03;1.90;;;19.20;78.50;;;;;;5479174;26;20002;-57
2024/04/10 08:51:42;;;;;;;7.35;1.90;;;19.20;78.50;;;;;;5471377;26;19998;-57
2024/04/10 08:54:11;;;;;;;7.05;1.80;;;19.20;78.50;;;;;;5467938;26;20006;-57
2024/04/10 08:56:36;;;;;;;5.82;1.77;;;19.20;78.60;;;;;;5472442;26;20013;-57
2024/04/10 08:59:02;;;;;;;6.70;1.90;;;19.20;78.60;;;;;;5470022;26;20002;-57
2024/04/10 09:01:37;;;;;;;7.72;2.13;;;19.20;78.60;;;;;;5468649;26;20878;-57
2024/04/10 09:04:10;;;;;;;5.97;1.83;;;19.20;78.60;;;;;;5473402;26;20099;-57
2024/04/10 09:06:36;;;;;;;6.50;2.20;;;19.20;78.60;;;;;;5471647;26;20071;-57
2024/04/10 09:09:06;;;;;;;8.98;2.25;;;19.20;78.60;;;;;;5467735;26;20026;-57
2024/04/10 09:11:32;;;;;;;;;;;19.20;78.60;;;;;;5473179;26;19994;-57
2024/04/10 09:14:07;;;;;;;9.07;2.88;;;19.20;78.70;;;;;;5470338;26;19934;-57
2024/04/10 09:16:33;;;;;;;9.98;2.53;;;19.20;78.90;;;;;;5467515;26;20006;-57
2024/04/10 09:19:10;;;;;;;10.27;2.38;;;19.20;79.00;;;;;;5474754;26;20009;-57
2024/04/10 09:21:37;;;;;;;8.68;2.20;;;19.20;79.10;;;;;;5471008;26;20477;-57
2024/04/10 09:24:03;;;;;;;8.55;2.58;;;19.30;79.10;;;;;;5465646;26;19999;-56
2024/04/10 09:26:29;;;;;;;6.30;1.95;;;19.20;78.90;;;;;;5465724;26;20038;-57
2024/04/10 09:29:12;;;;;;;7.68;2.10;;;19.30;78.90;;;;;;5471242;26;20750;-57
2024/04/10 09:31:39;;;;;;;8.77;2.30;;;19.30;78.80;;;;;;5468191;26;20014;-58
2024/04/10 09:34:06;;;;;;;7.88;2.40;;;19.30;78.80;;;;;;5474519;26;20749;-57
2024/04/10 09:36:33;;;;;;;7.10;2.33;;;19.30;79.30;;;;;;5478259;26;20013;-57
2024/04/10 09:39:07;;;;;;;7.20;2.42;;;19.30;78.80;;;;;;5468756;26;20041;-57
2024/04/10 09:41:44;;;;;;;8.77;2.47;;;19.30;78.70;;;;;;5458932;26;20003;-58
2024/04/10 09:44:10;;;;;;;8.18;2.55;;;19.30;78.70;;;;;;5458371;26;19999;-57
2024/04/10 09:46:37;;;;;;;6.22;2.13;;;19.30;78.70;;;;;;5454459;26;20010;-58
2024/04/10 09:49:12;;;;;;;7.25;2.40;;;19.30;78.70;;;;;;5471310;26;20459;-58
2024/04/10 09:51:45;;;;;;;7.65;2.28;;;19.30;78.70;;;;;;5463203;26;20007;-58
2024/04/10 09:54:11;;;;;;;9.13;2.60;;;19.30;78.70;;;;;;5470245;26;19998;-57
2024/04/10 09:56:39;;;;;;;7.50;2.00;;;19.30;78.70;;;;;;5471662;26;20014;-57
2024/04/10 09:59:08;;;;;;;6.25;2.20;;;19.40;78.70;;;;;;5466778;26;20011;-57
2024/04/10 10:01:33;;;;;;;6.45;2.08;;;19.40;78.70;;;;;;5466499;26;19999;-57
2024/04/10 10:04:01;;;;;;;6.43;2.00;;;19.30;78.60;;;;;;5477539;26;20011;-57
2024/04/10 10:06:31;;;;;;;8.18;2.40;;;19.40;78.70;;;;;;5465175;26;20762;-57
2024/04/10 10:08:58;;;;;;;5.88;2.15;;;19.30;78.70;;;;;;5469455;26;20063;-57
2024/04/10 10:11:24;;;;;;;7.53;2.42;;;19.40;78.70;;;;;;5432707;26;20037;-57
2024/04/10 10:14:02;;;;;;;6.90;2.70;;;19.40;78.70;;;;;;5455925;26;20680;-57
2024/04/10 10:16:31;;;;;;;8.25;2.53;;;19.40;78.70;;;;;;5472081;26;20009;-57
2024/04/10 10:18:59;;;;;;;6.95;2.10;;;19.30;78.60;;;;;;5461133;26;19998;-57
2024/04/10 10:21:27;;;;;;;6.45;2.25;;;19.40;78.70;;;;;;5462130;26;19999;-57
2024/04/10 10:24:01;;;;;;;6.70;2.20;;;19.40;78.60;;;;;;5463901;26;20472;-57
2024/04/10 10:26:27;;;;;;;7.80;2.35;;;19.40;78.60;;;;;;5467916;26;19998;-57
2024/04/10 10:29:06;;;;;;;17.25;4.63;;;19.40;78.60;;;;;;5473834;26;20075;-57
2024/04/10 10:31:32;;;;;;;7.68;2.75;;;19.40;81.10;;;;;;5472096;26;19994;-57
2024/04/10 10:33:59;;;;;;;9.63;2.72;;;19.40;82.10;;;;;;5476542;26;20002;-57
2024/04/10 10:36:25;;;;;;;6.07;2.30;;;19.40;81.90;;;;;;5476485;26;20006;-57
2024/04/10 10:39:14;;;;;;;7.55;2.53;;;19.40;81.50;;;;;;5471768;26;20179;-57
2024/04/10 10:41:41;;;;;;;9.38;2.60;;;19.40;81.20;;;;;;5465368;26;20334;-58
2024/04/10 10:44:07;;;;;;;8.93;3.00;;;19.40;81.00;;;;;;5460356;26;19999;-58
2024/04/10 10:46:35;;;;;;;8.38;2.80;;;19.40;80.80;;;;;;5471948;26;20002;-58
2024/04/10 10:49:04;;;;;;;7.38;2.70;;;19.40;80.80;;;;;;5470601;26;20041;-58
2024/04/10 10:51:31;;;;;;;8.20;2.63;;;19.40;80.70;;;;;;5471777;26;19995;-58
2024/04/10 10:53:57;;;;;;;6.53;2.47;;;19.40;80.60;;;;;;5471485;26;20477;-58
2024/04/10 10:56:27;;;;;;;6.78;2.38;;;19.40;80.50;;;;;;5474000;26;19994;-57
2024/04/10 10:58:54;;;;;;;7.55;2.85;;;19.40;80.50;;;;;;5465580;26;20014;-58
2024/04/10 11:01:20;;;;;;;7.40;2.30;;;19.40;80.50;;;;;;5468867;26;20527;-58
2024/04/10 11:03:47;;;;;;;10.15;2.65;;;19.40;80.40;;;;;;5483451;26;19998;-58
2024/04/10 11:06:14;;;;;;;8.38;2.97;;;19.40;80.40;;;;;;5473791;26;20018;-58
2024/04/10 11:08:40;;;;;;;7.43;2.50;;;19.40;80.30;;;;;;5465653;26;19998;-58
2024/04/10 11:11:06;;;;;;;7.63;2.63;;;19.40;80.20;;;;;;5476902;26;20573;-58
2024/04/10 11:13:33;;;;;;;6.43;2.50;;;19.40;80.20;;;;;;5480632;26;20030;-58
2024/04/10 11:16:00;;;;;;;9.30;2.70;;;19.40;80.10;;;;;;5474272;26;20075;-58
2024/04/10 11:18:31;;;;;;;7.80;2.30;;;19.50;80.10;;;;;;5482189;26;20017;-58
2024/04/10 11:20:56;;;;;;;6.82;2.30;;;19.50;80.00;;;;;;5477382;26;20014;-58
2024/04/10 11:23:24;;;;;;;7.78;2.60;;;19.50;79.90;;;;;;5475112;26;19994;-58
2024/04/10 11:25:51;;;;;;;6.78;2.45;;;19.40;79.80;;;;;;5478892;26;20020;-58
2024/04/10 11:28:16;;;;;;;7.15;2.38;;;19.50;79.80;;;;;;5475010;26;20002;-58
2024/04/10 11:30:42;;;;;;;6.28;2.38;;;19.50;80.20;;;;;;5476283;26;20022;-58
2024/04/10 11:33:08;;;;;;;7.88;2.40;;;19.50;79.70;;;;;;5471228;26;20001;-58
2024/04/10 11:35:37;;;;;;;6.63;2.55;;;19.50;79.50;;;;;;5479251;26;20053;-58
2024/04/10 11:38:03;;;;;;;9.18;2.60;;;19.50;79.50;;;;;;5475812;26;20037;-58
2024/04/10 11:40:28;;;;;;;8.60;2.60;;;19.50;79.50;;;;;;5464941;26;19999;-58
2024/04/10 11:42:54;;;;;;;7.10;2.67;;;19.50;79.40;;;;;;5474151;26;20013;-58
2024/04/10 11:45:20;;;;;;;7.28;2.55;;;19.40;79.40;;;;;;5473414;26;20002;-58
2024/04/10 11:47:48;;;;;;;6.88;2.35;;;19.50;79.40;;;;;;5474896;26;20009;-58
2024/04/10 11:50:17;;;;;;;8.98;2.53;;;19.50;79.30;;;;;;5477242;26;20013;-58
2024/04/10 11:52:44;;;;;;;15.65;3.00;;;19.50;79.20;;;;;;5473156;26;20005;-57
2024/04/10 11:55:10;;;;;;;6.30;2.50;;;19.50;79.20;;;;;;5477500;26;20009;-57
2024/04/10 11:57:38;;;;;;;14.00;2.50;;;19.50;79.10;;;;;;5482240;26;19998;-57
2024/04/10 12:00:07;;;;;;;6.85;2.38;;;19.50;79.00;;;;;;5480928;26;19998;-57
2024/04/10 12:02:33;;;;;;;6.93;2.30;;;19.50;79.00;;;;;;5468036;26;19995;-57
2024/04/10 12:05:03;;;;;;;6.93;2.28;;;19.50;78.90;;;;;;5474814;26;20432;-57
2024/04/10 12:07:29;;;;;;;7.22;2.13;;;19.40;78.80;;;;;;5466708;26;20011;-57
2024/04/10 12:09:55;;;;;;;8.40;2.67;;;19.40;78.80;;;;;;5468163;26;20006;-57
2024/04/10 12:12:21;;;;;;;7.85;2.50;;;19.40;78.80;;;;;;5456494;26;20408;-57
2024/04/10 12:14:47;;;;;;;8.27;2.63;;;19.40;78.70;;;;;;5471650;26;20078;-57
2024/04/10 12:17:13;;;;;;;6.50;2.33;;;19.40;78.60;;;;;;5472938;26;19998;-57
2024/04/10 12:19:38;;;;;;;6.60;2.10;;;19.40;78.70;;;;;;5468318;26;20067;-57
2024/04/10 12:22:04;;;;;;;7.55;2.28;;;19.50;78.70;;;;;;5463068;26;20077;-57
2024/04/10 12:24:30;;;;;;;10.13;2.78;;;19.50;78.60;;;;;;5467861;26;20006;-57
2024/04/10 12:26:56;;;;;;;7.95;2.25;;;19.50;78.60;;;;;;5467672;26;20011;-57
2024/04/10 12:29:22;;;;;;;7.88;2.17;;;19.50;78.60;;;;;;5470087;26;20005;-57
2024/04/10 12:31:49;;;;;;;5.28;2.10;;;19.50;78.50;;;;;;5472297;26;20084;-57
2024/04/10 12:34:15;;;;;;;6.85;2.25;;;19.50;78.60;;;;;;5456423;26;20009;-58
2024/04/10 12:39:26;;;;;;;4.72;2.00;;;19.50;78.90;;;;;;5461314;26;20398;-57
2024/04/10 12:41:51;;;;;;;6.80;1.85;;;19.50;78.40;;;;;;5469048;26;20508;-57
2024/04/10 12:44:18;;;;;;;7.90;2.33;;;19.50;78.30;;;;;;5459472;26;20013;-57
2024/04/10 12:46:45;;;;;;;7.47;2.20;;;19.50;78.30;;;;;;5461620;26;19998;-57
2024/04/10 12:49:12;;;;;;;7.50;2.20;;;19.50;78.20;;;;;;5464054;26;19998;-57
2024/04/10 12:51:37;;;;;;;5.30;2.05;;;19.60;78.20;;;;;;5465770;26;19998;-57